Franklin, NC

8:31 AM EDT on September 04, 2015 (GMT -0400)
Iotla Valley | | Change Station
CLOSE
Current Station
Personal Weather Station
Location: Franklin, NC
Elevation: 2200 ft
Nearby Weather Stations

Elev 2200 ft 35.20 °N, 83.42 °W | Updated 8 seconds ago

Fog
Fog
62.9 °F
Feels Like 62.9 °F
N
0.0
Wind Variable Wind from ESE
Gusts 0.0 mph

Today
High -- | Low -- °F
--% Chance of Precip.
Yesterday
High -- | Low -- °F
Precip. -- in
7:08 AM 7:56 PM
Waning Gibbous, 60% visible
Pressure 30.15 in
Visibility 0.2 miles
Clouds
Dew Point 33 °F
Humidity 33%
Rainfall 0.00 in
Snow Depth Not available.
UV Not available.
Pollen 8.80 out of 12
Air Quality Not available.
Flu Activity Not available.
METAR K1A5 041215Z AUTO 00000KT 1/4SM FG 15/15 A3015 RMK AO2 T01510151
Pressure 30.15 in
Visibility 0.2 miles
Clouds
Dew Point 33 °F
Humidity 33%
Rainfall 0.00 in
Snow Depth Not available.
UV Not available.
Pollen 8.80 out of 12
Air Quality Not available.
Flu Activity Not available.
METAR K1A5 041215Z AUTO 00000KT 1/4SM FG 15/15 A3015 RMK AO2 T01510151

10-Day Weather Forecast

×

Almanac

Astronomy

Sep. 04, 2015 Rise Set
Actual Time
Civil Twilight
Nautical Twilight
Astronomical Twilight
Moon
Length of Visible Light
Length of Day
Tomorrow will be .
, % of the Moon is Illuminated

Today's Extremes

State Highs State Lows

Community

WunderPhotos

Upload Photos

1,852,170 photos uploaded!

WunderBlogs® & News

Nearby

Air Quality

  Air Quality AQ Index Pollutant
Not available.

Snow Depth

Station Depth Elevation

Earthquake Activity

City Distance Mag. Time & Date
Minimum magnitude displayed is 2.5.

Coastal Water Temperatures

Place Temperature

Stations

Nearby Weather Stations

Station Location Temp. Windchill Dew Point Humidity Wind Precip. Elev Updated Type